Terminal Aerodrome Forecast
Issued by NWS Austin/San Antonio, TX

Home | Current Version | Previous Version | Text Only | Print | Product List | Glossary On
Versions: 1 2 3 4 5 6 7 8 9 10 11 12 13 14 15 16 17 18 19 20 21 22 23 24 25 26 27
000
FTUS44 KEWX 261318 AAB
TAFAUS
TAF AMD
KAUS 261318Z 2613/2718 18006KT 5SM -RA BR BKN008 OVC015
     FM261530 18012KT P6SM VCSH OVC018
     FM261900 18013KT P6SM BKN035
     FM262100 17012KT P6SM VCTS OVC025CB
     FM270600 16011KT P6SM OVC015
     FM271000 17012KT P6SM OVC007
     FM271500 18011KT P6SM BKN015=

USA.gov is the U.S. government's official web portal to all federal, state and local government web resources and services.